Time;durP1;ratioP1;P1;durP2;ratioP2;P2;SDS_P1;SDS_P2;PMS_P1;PMS_P2;Temp;Humidity;BMP_temperature;BMP_pressure;BME280_temperature;BME280_humidity;BME280_pressure;Samples;Min_cycle;Max_cycle;Signal;HPM_P1;HPM_P2
2023/10/11 00:00:57;;;;;;;8.50;4.72;;;;;;;15.02;95.23;101449.22;6215700;23;20007;-80
2023/10/11 00:05:55;;;;;;;8.48;4.85;;;;;;;14.82;95.15;101423.81;6225724;23;20382;-80
2023/10/11 00:08:25;;;;;;;8.00;4.53;;;;;;;14.78;94.87;101410.22;6215596;23;20008;-75
2023/10/11 00:10:56;;;;;;;10.20;4.78;;;;;;;15.03;95.44;101452.66;6215541;23;20331;-81
2023/10/11 00:13:23;;;;;;;11.37;5.47;;;;;;;14.76;94.34;101422.50;6215335;23;20055;-76
2023/10/11 00:15:52;;;;;;;10.77;5.00;;;;;;;14.89;94.47;101444.09;6215552;23;20319;-75
2023/10/11 00:18:28;;;;;;;9.32;4.82;;;;;;;14.90;93.68;101450.13;6215842;23;20330;-77
2023/10/11 00:20:57;;;;;;;8.98;4.70;;;;;;;15.00;93.53;101453.72;6213497;23;20005;-81
2023/10/11 00:23:27;;;;;;;10.25;4.90;;;;;;;14.99;93.33;101456.44;6215529;23;19996;-81
2023/10/11 00:25:54;;;;;;;8.63;4.85;;;;;;;14.96;93.92;101459.25;6215199;23;20054;-81
2023/10/11 00:28:24;;;;;;;10.30;4.70;;;;;;;14.93;94.01;101448.13;6215234;23;20003;-75
2023/10/11 00:30:51;;;;;;;7.85;4.63;;;;;;;14.82;94.38;101442.03;6214933;23;20374;-76
2023/10/11 00:33:17;;;;;;;9.63;4.88;;;;;;;14.68;94.35;101435.22;6215421;23;20009;-77
2023/10/11 00:35:47;;;;;;;9.18;4.40;;;;;;;14.63;94.13;101414.72;6215396;23;20005;-81
2023/10/11 00:38:20;;;;;;;12.02;4.75;;;;;;;14.84;93.97;101445.34;6215219;23;20012;-80
2023/10/11 00:41:06;;;;;;;8.98;4.90;;;;;;;14.76;94.20;101432.06;6215428;23;20084;-83
2023/10/11 00:43:36;;;;;;;10.07;4.57;;;;;;;14.75;94.14;101438.19;6215630;23;20069;-75
2023/10/11 00:46:05;;;;;;;10.43;4.55;;;;;;;14.75;94.40;101441.66;6215370;23;20005;-78
2023/10/11 00:48:31;;;;;;;11.48;4.55;;;;;;;14.81;93.89;101437.75;6215005;23;20004;-79
2023/10/11 00:50:56;;;;;;;9.05;4.90;;;;;;;14.79;94.60;101434.44;6215307;23;20058;-75
2023/10/11 00:53:26;;;;;;;9.63;4.93;;;;;;;14.68;94.02;101421.38;6215370;23;20086;-75
2023/10/11 00:55:55;;;;;;;9.82;5.38;;;;;;;14.74;93.69;101426.13;6212557;23;20012;-81
2023/10/11 00:58:22;;;;;;;10.38;4.97;;;;;;;14.83;94.42;101449.72;6214892;23;20112;-75
2023/10/11 01:00:48;;;;;;;9.13;4.80;;;;;;;14.69;94.58;101417.84;6215053;23;20012;-80
2023/10/11 01:03:14;;;;;;;10.43;4.72;;;;;;;14.76;94.18;101435.50;6214946;23;20070;-76
2023/10/11 01:05:44;;;;;;;9.82;5.20;;;;;;;14.73;94.65;101438.31;6215022;23;20009;-80
2023/10/11 01:08:12;;;;;;;11.57;5.07;;;;;;;14.44;94.81;101395.31;6214889;23;20445;-79
2023/10/11 01:10:39;;;;;;;9.38;5.05;;;;;;;14.61;94.93;101427.00;6214927;23;20058;-78
2023/10/11 01:13:05;;;;;;;10.95;5.32;;;;;;;14.57;94.92;101419.53;6188514;23;20423;-78
2023/10/11 01:15:30;;;;;;;9.05;5.35;;;;;;;14.68;94.84;101442.19;6215291;23;20055;-82
2023/10/11 01:17:56;;;;;;;9.02;5.00;;;;;;;14.62;95.55;101433.88;6187342;23;20015;-81
2023/10/11 01:20:21;;;;;;;8.50;4.95;;;;;;;14.59;95.58;101439.28;6215195;23;20004;-79
2023/10/11 01:22:47;;;;;;;10.45;5.13;;;;;;;14.55;95.63;101432.66;6214867;23;20009;-78
2023/10/11 01:25:13;;;;;;;10.57;5.43;;;;;;;14.41;96.30;101419.75;6214871;23;20001;-81
2023/10/11 01:27:41;;;;;;;14.45;5.35;;;;;;;14.47;96.67;101431.53;6214676;23;20009;-80
2023/10/11 01:30:09;;;;;;;12.00;5.00;;;;;;;14.35;97.03;101415.81;6214936;23;20009;-79
2023/10/11 01:32:41;;;;;;;10.25;5.50;;;;;;;14.30;97.31;101417.88;6214814;23;20004;-77
2023/10/11 01:35:18;;;;;;;10.88;5.10;;;;;;;14.39;97.93;101431.19;6214542;23;20019;-82
2023/10/11 01:37:43;;;;;;;9.00;5.03;;;;;;;14.38;98.29;101426.94;6214430;23;20004;-80
2023/10/11 01:40:10;;;;;;;9.80;5.18;;;;;;;14.20;98.21;101401.28;6214706;23;20008;-79
2023/10/11 01:42:36;;;;;;;9.02;5.05;;;;;;;14.36;98.54;101427.03;6214486;23;20038;-79
2023/10/11 01:45:07;;;;;;;9.73;5.55;;;;;;;14.36;98.50;101421.84;6214761;23;20004;-78
2023/10/11 01:47:36;;;;;;;9.32;5.40;;;;;;;14.35;98.81;101417.56;6214689;23;20330;-80
2023/10/11 01:50:03;;;;;;;12.65;5.40;;;;;;;14.25;98.39;101398.34;6214728;23;20005;-79
2023/10/11 01:52:28;;;;;;;9.70;5.03;;;;;;;14.35;98.73;101410.63;6221071;23;20072;-75
2023/10/11 01:54:56;;;;;;;10.57;5.70;;;;;;;14.37;98.70;101420.91;6221207;23;20451;-80
2023/10/11 01:57:25;;;;;;;10.82;5.57;;;;;;;14.24;98.79;101396.69;6215064;23;20100;-81
2023/10/11 01:59:51;;;;;;;13.70;5.55;;;;;;;14.27;99.48;101405.13;6215717;23;20326;-77
2023/10/11 02:02:17;;;;;;;13.00;6.18;;;;;;;14.18;99.54;101387.56;6217244;23;20080;-78
2023/10/11 02:04:42;;;;;;;8.18;5.13;;;;;;;14.23;99.76;101390.66;6216869;23;20028;-80
2023/10/11 02:07:07;;;;;;;8.77;5.32;;;;;;;14.20;100.00;101387.47;6216540;23;20024;-77
2023/10/11 02:09:33;;;;;;;10.23;5.68;;;;;;;14.15;100.00;101384.34;6216785;23;20015;-81
2023/10/11 02:11:59;;;;;;;8.50;5.32;;;;;;;14.10;100.00;101373.44;6216588;23;20011;-81
2023/10/11 02:14:28;;;;;;;10.48;5.60;;;;;;;14.15;100.00;101381.75;6217083;23;20417;-77
2023/10/11 02:16:53;;;;;;;10.77;5.68;;;;;;;14.01;100.00;101369.72;6216887;23;20005;-76
2023/10/11 02:19:19;;;;;;;9.32;5.38;;;;;;;14.04;100.00;101379.88;6216830;23;20008;-82
2023/10/11 02:21:44;;;;;;;11.60;5.78;;;;;;;14.03;100.00;101376.47;6216633;23;20062;-76
2023/10/11 02:24:14;;;;;;;10.82;5.57;;;;;;;13.86;100.00;101357.78;6216761;23;19997;-81
2023/10/11 02:26:41;;;;;;;9.68;5.80;;;;;;;13.93;100.00;101378.03;6216623;23;20001;-78
2023/10/11 02:29:11;;;;;;;12.35;5.93;;;;;;;13.92;100.00;101375.53;6216408;23;20008;-75
2023/10/11 02:31:40;;;;;;;10.30;5.63;;;;;;;13.87;100.00;101372.44;6189744;23;20331;-78
2023/10/11 02:34:14;;;;;;;10.20;6.60;;;;;;;13.82;100.00;101377.94;6215953;23;20012;-80
2023/10/11 02:36:43;;;;;;;11.15;5.75;;;;;;;13.81;100.00;101375.44;6216520;23;20011;-78
2023/10/11 02:39:17;;;;;;;12.15;5.97;;;;;;;13.61;100.00;101348.22;6216463;23;20020;-79
2023/10/11 02:41:46;;;;;;;11.23;6.57;;;;;;;13.74;100.00;101378.44;6216399;23;20008;-78
2023/10/11 02:44:11;;;;;;;13.15;6.22;;;;;;;13.72;100.00;101374.28;6216332;23;20005;-80
2023/10/11 02:46:37;;;;;;;10.93;6.57;;;;;;;13.55;100.00;101343.44;6216728;23;20484;-80
2023/10/11 02:49:18;;;;;;;12.20;5.80;;;;;;;13.56;100.00;101351.13;6216336;23;20005;-80
2023/10/11 02:51:53;;;;;;;10.02;5.97;;;;;;;13.65;100.00;101371.28;6216438;23;20008;-77
2023/10/11 02:54:24;;;;;;;9.40;5.60;;;;;;;13.55;100.00;101366.78;6216636;23;20001;-76
2023/10/11 02:56:52;;;;;;;12.00;6.07;;;;;;;13.59;100.00;101383.84;6216584;23;20005;-79
2023/10/11 02:59:19;;;;;;;9.43;6.13;;;;;;;13.54;100.00;101372.94;6216118;23;20009;-79
2023/10/11 03:01:59;;;;;;;10.07;6.35;;;;;;;13.49;100.00;101370.66;6216142;23;20084;-80
2023/10/11 03:04:27;;;;;;;11.27;6.50;;;;;;;13.48;100.00;101369.00;6216188;23;20008;-77
2023/10/11 03:06:53;;;;;;;11.95;6.45;;;;;;;13.37;100.00;101342.91;6216296;23;20004;-78
2023/10/11 03:09:18;;;;;;;10.82;6.38;;;;;;;13.43;100.00;101345.09;6216225;23;20055;-76
2023/10/11 03:11:45;;;;;;;11.30;6.85;;;;;;;13.37;100.00;101359.34;6216369;23;20378;-81
2023/10/11 03:14:12;;;;;;;10.05;6.40;;;;;;;13.39;100.00;101360.06;6216463;23;20001;-77
2023/10/11 03:16:42;;;;;;;11.40;6.22;;;;;;;13.35;100.00;101362.94;6215856;23;20416;-77
2023/10/11 03:19:10;;;;;;;9.77;6.40;;;;;;;13.34;100.00;101356.09;6213945;23;20083;-76
2023/10/11 03:21:35;;;;;;;10.15;6.70;;;;;;;13.32;100.00;101355.38;6216008;23;20005;-80
2023/10/11 03:24:04;;;;;;;10.20;6.72;;;;;;;13.23;100.00;101345.59;6216289;23;20011;-80
2023/10/11 03:29:04;;;;;;;13.85;7.22;;;;;;;13.24;100.00;101348.06;6216055;23;20068;-77
2023/10/11 03:31:34;;;;;;;12.10;6.88;;;;;;;13.23;100.00;101361.16;6216406;23;20098;-82
2023/10/11 03:34:01;;;;;;;11.55;6.20;;;;;;;13.05;100.00;101337.22;6215606;23;20019;-76
2023/10/11 03:39:27;;;;;;;11.85;6.63;;;;;;;13.01;100.00;101346.97;6125202;23;20018;-78
2023/10/11 03:42:06;;;;;;;13.93;7.43;;;;;;;13.08;100.00;101355.19;6123995;23;20010;-81
2023/10/11 03:44:35;;;;;;;10.80;6.80;;;;;;;13.10;100.00;101361.94;6123456;23;20005;-79
2023/10/11 03:47:06;;;;;;;13.23;7.22;;;;;;;13.06;100.00;101357.84;6123926;23;20045;-78
2023/10/11 03:51:57;;;;;;;10.93;6.72;;;;;;;13.03;100.00;101347.69;6133809;23;20542;-76
2023/10/11 03:54:22;;;;;;;12.40;7.13;;;;;;;13.02;100.00;101343.44;6124043;23;20395;-75
2023/10/11 03:56:53;;;;;;;12.43;7.75;;;;;;;12.95;100.00;101338.75;6124076;23;20014;-79
2023/10/11 03:59:25;;;;;;;13.10;7.03;;;;;;;13.01;100.00;101349.56;6123397;23;20010;-83
2023/10/11 04:01:51;;;;;;;15.20;7.78;;;;;;;12.94;100.00;101337.91;6123843;23;20010;-77
2023/10/11 04:04:21;;;;;;;13.27;7.68;;;;;;;12.93;100.00;101344.03;6123654;23;20089;-76
2023/10/11 04:06:51;;;;;;;12.10;6.93;;;;;;;12.92;100.00;101347.56;6123675;23;20014;-82
2023/10/11 04:09:37;;;;;;;11.85;7.45;;;;;;;12.93;100.00;101337.09;6123867;23;20425;-83
2023/10/11 04:12:04;;;;;;;13.27;7.88;;;;;;;12.91;100.00;101332.94;6123661;23;20010;-80
2023/10/11 04:14:45;;;;;;;10.38;7.50;;;;;;;12.88;100.00;101326.19;6123461;23;20515;-79
2023/10/11 04:19:49;;;;;;;12.45;7.13;;;;;;;12.89;100.00;101327.84;6226130;23;20017;-78
2023/10/11 04:22:23;;;;;;;15.68;7.55;;;;;;;12.77;100.00;101304.47;6215193;23;20028;-81
2023/10/11 04:24:50;;;;;;;11.90;7.63;;;;;;;12.83;100.00;101325.66;6215525;23;20001;-80
2023/10/11 04:29:50;;;;;;;12.48;7.72;;;;;;;12.67;100.00;101280.06;6220452;23;20092;-78
2023/10/11 04:32:45;;;;;;;12.73;8.02;;;;;;;12.86;100.00;101312.47;6215387;23;20455;-81
2023/10/11 04:35:21;;;;;;;13.65;8.15;;;;;;;12.77;100.00;101309.66;6215098;23;20070;-76
2023/10/11 04:38:01;;;;;;;12.65;7.80;;;;;;;12.72;100.00;101309.13;6215298;23;20004;-80
2023/10/11 04:43:05;;;;;;;13.23;8.23;;;;;;;12.82;100.00;101321.41;6215548;23;20010;-78
2023/10/11 04:45:44;;;;;;;14.20;8.25;;;;;;;12.82;100.00;101320.56;6215122;23;20000;-77
2023/10/11 04:48:41;;;;;;;13.35;8.27;;;;;;;12.81;100.00;101318.91;6215422;23;20001;-80
2023/10/11 04:51:21;;;;;;;13.27;8.30;;;;;;;12.73;100.00;101313.38;6213463;23;20031;-77
2023/10/11 05:04:28;;;;;;;12.48;8.27;;;;;;;12.80;100.00;101335.41;6219156;23;20083;-78
2023/10/11 05:06:57;;;;;;;15.88;8.02;;;;;;;12.75;100.00;101317.53;6221817;23;20530;-77
2023/10/11 05:09:37;;;;;;;14.02;8.60;;;;;;;12.79;100.00;101326.78;6219043;23;20028;-75
2023/10/11 05:14:29;;;;;;;13.90;8.55;;;;;;;12.76;100.00;101336.50;6215062;23;20095;-79
2023/10/11 05:17:16;;;;;;;13.45;9.02;;;;;;;12.77;100.00;101344.16;6215229;23;20040;-77
2023/10/11 05:19:56;;;;;;;15.13;8.88;;;;;;;12.73;100.00;101342.72;6214881;23;20009;-74
2023/10/11 05:22:48;;;;;;;11.68;8.32;;;;;;;12.72;100.00;101340.22;6215227;23;20012;-75
2023/10/11 05:25:16;;;;;;;12.68;8.40;;;;;;;12.48;100.00;101306.31;6214605;23;20017;-75
2023/10/11 05:27:56;;;;;;;13.98;8.82;;;;;;;12.70;100.00;101349.88;6214748;23;20454;-79
2023/10/11 05:52:14;;;;;;;13.98;9.43;;;;;;;12.67;100.00;101343.09;6152560;23;20407;-78
2023/10/11 05:54:40;;;;;;;12.98;9.40;;;;;;;12.68;100.00;101352.53;6152526;23;20037;-77
2023/10/11 05:57:06;;;;;;;14.30;9.27;;;;;;;12.62;100.00;101348.59;6152504;23;20356;-78
2023/10/11 05:59:35;;;;;;;19.38;10.15;;;;;;;12.66;100.00;101356.97;6152017;23;20105;-81
2023/10/11 06:02:02;;;;;;;13.60;9.35;;;;;;;12.74;100.00;101361.69;6151921;23;20428;-81
2023/10/11 06:04:30;;;;;;;13.02;9.27;;;;;;;12.78;100.00;101355.38;6126605;23;20013;-78
2023/10/11 06:06:58;;;;;;;19.17;9.43;;;;;;;12.81;100.00;101350.00;6152614;23;20107;-77
2023/10/11 06:09:27;;;;;;;16.17;9.45;;;;;;;12.84;100.00;101357.59;6128913;23;20273;-80
2023/10/11 06:11:53;;;;;;;14.65;9.27;;;;;;;12.86;100.00;101347.94;6166937;23;20016;-73
2023/10/11 06:14:24;;;;;;;16.33;9.45;;;;;;;12.89;100.00;101342.59;6214883;23;20362;-74
2023/10/11 06:16:57;;;;;;;;;;;;;;;12.91;100.00;101345.91;6215627;23;20005;-77
2023/10/11 06:19:26;;;;;;;15.40;9.25;;;;;;;12.85;100.00;101322.94;6214773;23;19907;-79
2023/10/11 06:21:56;;;;;;;13.77;9.27;;;;;;;13.16;100.00;101324.38;6214663;23;20059;-76
2023/10/11 06:24:26;;;;;;;16.55;9.48;;;;;;;13.18;100.00;101320.78;6214575;23;19996;-79
2023/10/11 06:26:52;;;;;;;15.10;10.23;;;;;;;13.35;100.00;101342.19;6214728;23;20008;-74
2023/10/11 06:29:23;;;;;;;14.88;9.50;;;;;;;13.36;100.00;101330.88;6214167;23;20001;-74
2023/10/11 06:31:52;;;;;;;17.70;9.73;;;;;;;13.39;100.00;101325.50;6214157;23;20012;-74
2023/10/11 06:36:49;;;;;;;16.80;10.13;;;;;;;13.47;100.00;101315.44;6224788;23;20016;-74
2023/10/11 06:42:14;;;;;;;17.10;10.27;;;;;;;13.73;100.00;101331.81;6224939;23;20008;-77
2023/10/11 06:44:40;;;;;;;14.77;8.90;;;;;;;13.84;100.00;101329.31;6214712;23;20370;-75
2023/10/11 06:47:06;;;;;;;17.65;9.60;;;;;;;13.97;100.00;101337.94;6215570;23;20004;-77
2023/10/11 06:49:40;;;;;;;12.90;8.52;;;;;;;13.94;100.00;101324.31;6216735;23;20295;-78
2023/10/11 06:52:08;;;;;;;13.55;9.55;;;;;;;14.11;100.00;101349.13;6216473;23;20017;-80
2023/10/11 06:54:33;;;;;;;14.18;9.75;;;;;;;14.17;100.00;101349.56;6216743;23;20083;-79
2023/10/11 06:57:01;;;;;;;15.27;9.38;;;;;;;14.17;100.00;101338.34;6216240;23;20546;-75
2023/10/11 06:59:28;;;;;;;17.50;9.77;;;;;;;14.03;100.00;101302.91;6216088;23;20316;-78
2023/10/11 07:01:59;;;;;;;14.23;9.40;;;;;;;14.24;100.00;101329.16;6216069;23;20019;-76
2023/10/11 07:04:30;;;;;;;;;;;;;;;14.44;100.00;101356.31;6190375;23;20334;-75
2023/10/11 07:06:55;;;;;;;15.32;9.25;;;;;;;14.52;100.00;101354.88;6216908;23;20314;-75
2023/10/11 07:09:22;;;;;;;16.48;9.32;;;;;;;14.66;100.00;101369.50;6216201;23;20008;-75
2023/10/11 07:11:50;;;;;;;15.00;9.80;;;;;;;14.80;100.00;101376.31;6215966;23;20015;-76
2023/10/11 07:14:16;;;;;;;15.85;9.40;;;;;;;14.74;100.00;101356.75;6216392;23;20296;-75
2023/10/11 07:16:46;;;;;;;15.35;8.80;;;;;;;15.05;100.00;101385.78;6216354;23;20020;-75
2023/10/11 07:19:11;;;;;;;14.25;9.73;;;;;;;15.21;100.00;101397.53;6215943;23;20100;-75
2023/10/11 07:24:20;;;;;;;;;;;;;;;15.50;100.00;101402.34;6227137;23;20422;-81
2023/10/11 07:29:13;;;;;;;15.55;9.68;;;;;;;15.75;100.00;101412.63;6226276;23;20015;-76
2023/10/11 07:31:48;;;;;;;14.68;9.63;;;;;;;15.73;100.00;101393.69;6215886;23;20000;-81
2023/10/11 07:34:17;;;;;;;13.88;9.25;;;;;;;15.94;100.00;101404.25;6216175;23;20019;-78
2023/10/11 07:36:43;;;;;;;16.42;9.52;;;;;;;16.06;100.00;101408.53;6216540;23;20334;-77
2023/10/11 07:41:49;;;;;;;13.23;9.00;;;;;;;16.30;100.00;101390.16;6226810;23;20036;-80
2023/10/11 07:44:18;;;;;;;15.98;9.80;;;;;;;16.31;100.00;101375.34;6189841;23;20056;-78
2023/10/11 07:46:47;;;;;;;15.10;9.27;;;;;;;16.28;100.00;101365.16;6216711;23;20008;-80
2023/10/11 07:49:22;;;;;;;13.82;9.00;;;;;;;16.24;100.00;101351.56;6216217;23;20004;-80
2023/10/11 07:51:52;;;;;;;13.93;9.38;;;;;;;16.58;100.00;101391.41;6215789;23;20013;-80
2023/10/11 07:54:20;;;;;;;18.08;9.35;;;;;;;16.33;100.00;101334.38;6214813;23;20039;-81
2023/10/11 07:56:48;;;;;;;16.10;9.32;;;;;;;16.75;100.00;101382.28;6215436;23;20012;-81
2023/10/11 07:59:14;;;;;;;16.52;10.13;;;;;;;16.56;100.00;101358.59;6215610;23;20062;-75
2023/10/11 08:01:43;;;;;;;16.85;10.52;;;;;;;16.79;100.00;101393.31;6215273;23;20001;-80
2023/10/11 08:04:11;;;;;;;16.80;9.00;;;;;;;16.75;100.00;101394.50;6215465;23;19997;-80
2023/10/11 08:06:40;;;;;;;14.18;9.63;;;;;;;16.55;100.00;101386.47;6215591;23;20079;-76
2023/10/11 08:09:09;;;;;;;15.35;9.65;;;;;;;16.49;100.00;101391.31;6215700;23;20031;-79
2023/10/11 08:11:56;;;;;;;15.85;9.85;;;;;;;16.39;100.00;101399.03;6215773;23;20043;-81
2023/10/11 08:14:28;;;;;;;15.90;9.70;;;;;;;16.28;100.00;101396.44;6216047;23;20007;-80
2023/10/11 08:16:56;;;;;;;16.10;9.63;;;;;;;16.04;100.00;101376.56;6217745;23;20473;-79
2023/10/11 08:19:23;;;;;;;14.68;9.90;;;;;;;15.69;100.00;101324.56;6216050;23;20005;-81
2023/10/11 08:21:54;;;;;;;15.63;9.60;;;;;;;16.13;100.00;101400.25;6216245;23;20004;-80
2023/10/11 08:24:27;;;;;;;16.77;11.00;;;;;;;16.13;100.00;101393.25;6215608;23;20323;-78
2023/10/11 08:26:57;;;;;;;15.25;10.68;;;;;;;16.17;100.00;101402.50;6215643;23;20437;-79
2023/10/11 08:29:29;;;;;;;15.93;10.35;;;;;;;16.20;100.00;101399.63;6215812;23;20000;-78
2023/10/11 08:31:58;;;;;;;17.27;10.80;;;;;;;16.28;100.00;101412.06;6215730;23;20498;-80
2023/10/11 08:34:27;;;;;;;19.98;11.07;;;;;;;16.20;100.00;101389.22;6215120;23;20389;-77
2023/10/11 08:36:56;;;;;;;15.88;10.77;;;;;;;16.29;100.00;101398.91;6215631;23;20004;-77
2023/10/11 08:42:16;;;;;;;13.80;10.35;;;;;;;16.55;100.00;101394.28;6215610;23;20035;-77
2023/10/11 08:44:46;;;;;;;18.55;11.50;;;;;;;16.88;100.00;101418.66;6215320;23;20005;-81
2023/10/11 08:47:16;;;;;;;18.30;11.02;;;;;;;17.08;100.00;101417.03;6215404;23;20004;-80
2023/10/11 08:49:48;;;;;;;15.32;11.18;;;;;;;17.37;100.00;101427.72;6215217;23;20010;-82
2023/10/11 08:52:19;;;;;;;20.60;10.82;;;;;;;17.41;100.00;101397.81;6215486;23;20078;-81
2023/10/11 08:54:46;;;;;;;20.90;12.25;;;;;;;17.49;100.00;101416.25;6215460;23;20009;-82
2023/10/11 08:57:13;;;;;;;17.02;11.98;;;;;;;17.30;100.00;101429.16;6215192;23;20032;-81
2023/10/11 08:59:58;;;;;;;19.60;12.00;;;;;;;17.21;100.00;101430.78;6215204;23;20008;-83
2023/10/11 09:02:27;;;;;;;17.10;12.32;;;;;;;17.26;100.00;101433.00;6190818;23;20061;-76
2023/10/11 09:04:56;;;;;;;20.70;12.95;;;;;;;17.42;100.00;101436.84;6215064;23;20004;-81
2023/10/11 09:07:38;;;;;;;19.75;13.50;;;;;;;17.44;100.00;101440.16;6213702;23;20013;-79
2023/10/11 09:10:33;;;;;;;23.20;14.68;;;;;;;17.40;100.00;101450.97;6214980;23;20005;-80
2023/10/11 09:13:01;;;;;;;23.33;14.85;;;;;;;17.30;100.00;101447.44;6215281;23;20028;-82
2023/10/11 09:15:40;;;;;;;22.15;15.38;;;;;;;17.22;100.00;101435.03;6215436;23;20055;-77
2023/10/11 09:18:14;;;;;;;21.30;16.52;;;;;;;17.10;100.00;101413.34;6214567;23;20009;-79
2023/10/11 09:20:48;;;;;;;22.88;15.27;;;;;;;17.40;100.00;101440.50;6214804;23;20008;-79
2023/10/11 09:23:20;;;;;;;23.50;16.75;;;;;;;17.39;100.00;101431.03;6214995;23;20001;-77
2023/10/11 09:25:58;;;;;;;23.92;15.02;;;;;;;17.37;100.00;101427.72;6214912;23;20071;-80
2023/10/11 09:28:27;;;;;;;24.10;16.73;;;;;;;17.40;100.00;101433.53;6212653;23;20013;-79
2023/10/11 09:31:10;;;;;;;23.02;15.27;;;;;;;17.45;100.00;101436.59;6214814;23;20074;-76
2023/10/11 09:33:50;;;;;;;21.35;15.77;;;;;;;17.46;100.00;101433.03;6187774;23;20497;-80
2023/10/11 09:36:19;;;;;;;20.42;15.68;;;;;;;17.46;100.00;101440.84;6214755;23;20419;-80
2023/10/11 09:38:45;;;;;;;23.65;16.13;;;;;;;17.39;100.00;101447.53;6214776;23;20067;-77
2023/10/11 09:41:12;;;;;;;25.10;17.77;;;;;;;17.36;100.00;101447.78;6214948;23;20000;-77
2023/10/11 09:43:45;;;;;;;24.23;17.55;;;;;;;17.32;100.00;101454.22;6215010;23;20001;-78
2023/10/11 09:46:11;;;;;;;25.10;18.67;;;;;;;17.25;100.00;101437.38;6215009;23;20067;-79
2023/10/11 09:48:39;;;;;;;24.50;18.52;;;;;;;17.35;100.00;101445.31;6214432;23;20075;-80
2023/10/11 09:51:14;;;;;;;23.85;17.48;;;;;;;17.31;100.00;101441.28;6214774;23;20056;-79
2023/10/11 09:53:49;;;;;;;22.88;15.90;;;;;;;17.49;100.00;101455.44;6212996;23;20028;-80
2023/10/11 09:56:48;;;;;;;28.40;20.08;;;;;;;17.44;100.00;101447.16;6214636;23;20070;-79
2023/10/11 09:59:38;;;;;;;26.45;21.58;;;;;;;17.41;100.00;101450.03;6214694;23;20009;-80
2023/10/11 10:02:09;;;;;;;28.48;20.50;;;;;;;17.39;100.00;101447.53;6214937;23;20009;-81
2023/10/11 10:04:49;;;;;;;28.05;20.95;;;;;;;17.43;100.00;101448.13;6214541;23;20377;-80
2023/10/11 10:07:24;;;;;;;32.63;21.70;;;;;;;17.34;100.00;101448.88;6214625;23;20008;-80
2023/10/11 10:10:00;;;;;;;27.40;21.55;;;;;;;17.38;100.00;101450.25;6214787;23;20032;-81
2023/10/11 10:12:58;;;;;;;27.10;19.55;;;;;;;17.42;100.00;101449.06;6214785;23;20000;-80
2023/10/11 10:15:32;;;;;;;28.38;19.63;;;;;;;17.28;100.00;101431.91;6093597;23;20127;-80
2023/10/11 10:17:57;;;;;;;31.27;21.85;;;;;;;17.34;100.00;101454.09;6093268;23;20038;-78
2023/10/11 10:20:41;;;;;;;28.90;22.02;;;;;;;17.22;100.00;101448.09;6096191;23;20007;-83
2023/10/11 10:23:15;;;;;;;29.58;21.67;;;;;;;17.21;100.00;101441.22;6100511;23;20010;-78
2023/10/11 10:25:48;;;;;;;32.53;21.25;;;;;;;17.19;100.00;101435.28;6073286;23;20040;-80
2023/10/11 10:28:45;;;;;;;27.02;22.27;;;;;;;17.32;100.00;101451.59;6095568;23;20041;-75
2023/10/11 10:31:19;;;;;;;26.55;21.42;;;;;;;17.27;100.00;101434.66;6095407;23;20011;-79
2023/10/11 10:34:09;;;;;;;26.67;20.63;;;;;;;17.44;100.00;101448.00;6095256;23;20019;-75
2023/10/11 10:36:37;;;;;;;31.13;22.25;;;;;;;17.55;100.00;101444.50;6095242;23;20021;-75
2023/10/11 10:41:36;;;;;;;26.10;20.63;;;;;;;17.63;100.00;101462.16;6095605;23;20010;-74
2023/10/11 10:44:10;;;;;;;28.25;21.52;;;;;;;17.57;100.00;101442.56;6095376;23;20010;-77
2023/10/11 10:46:37;;;;;;;27.13;21.10;;;;;;;17.64;100.00;101450.75;6095415;23;20013;-81
2023/10/11 10:49:03;;;;;;;30.60;21.98;;;;;;;17.68;100.00;101447.72;6095399;23;20017;-78
2023/10/11 10:51:39;;;;;;;26.45;20.52;;;;;;;17.53;100.00;101441.19;6110263;23;20054;-76
2023/10/11 10:54:12;;;;;;;27.45;20.25;;;;;;;17.33;100.00;101400.22;6190334;23;20308;-79
2023/10/11 10:56:46;;;;;;;29.17;20.88;;;;;;;17.37;100.00;101402.44;6216427;23;20005;-79
2023/10/11 10:59:12;;;;;;;27.40;20.23;;;;;;;17.74;100.00;101459.50;6216217;23;20423;-83
2023/10/11 11:01:44;;;;;;;27.77;20.77;;;;;;;17.71;100.00;101459.78;6190020;23;20001;-83
2023/10/11 11:04:11;;;;;;;27.83;18.75;;;;;;;17.67;100.00;101448.69;6216632;23;20315;-80
2023/10/11 11:06:46;;;;;;;27.75;19.48;;;;;;;17.55;100.00;101435.84;6216121;23;20115;-81
2023/10/11 11:09:35;;;;;;;26.25;20.35;;;;;;;17.45;100.00;101422.72;6216614;23;19996;-81
2023/10/11 11:12:14;;;;;;;27.70;20.00;;;;;;;17.66;100.00;101441.00;6215731;23;20005;-84
2023/10/11 11:14:55;;;;;;;26.77;20.65;;;;;;;17.74;100.00;101431.59;6216676;23;20050;-82
2023/10/11 11:17:23;;;;;;;26.67;20.73;;;;;;;17.60;100.00;101404.91;6216572;23;20059;-78
2023/10/11 11:20:27;;;;;;;29.55;18.95;;;;;;;17.72;100.00;101433.50;6189008;23;20350;-83
2023/10/11 11:22:54;;;;;;;28.52;21.15;;;;;;;17.68;100.00;101442.50;6216237;23;20427;-82
2023/10/11 11:25:27;;;;;;;31.75;22.08;;;;;;;17.64;100.00;101435.06;6216609;23;20009;-81
2023/10/11 11:28:18;;;;;;;29.00;21.95;;;;;;;17.60;100.00;101431.03;6215773;23;20079;-80
2023/10/11 11:33:47;;;;;;;28.33;22.05;;;;;;;17.33;100.00;101361.06;6217098;23;20052;-80
2023/10/11 11:36:40;;;;;;;31.92;23.90;;;;;;;17.59;100.00;101390.22;6216968;23;20016;-83
2023/10/11 11:39:27;;;;;;;30.10;22.17;;;;;;;17.39;100.00;101370.97;6217358;23;20059;-81
2023/10/11 11:41:57;;;;;;;28.05;18.52;;;;;;;17.75;100.00;101395.84;6189412;23;20009;-78
2023/10/11 11:44:23;;;;;;;28.13;20.75;;;;;;;17.85;100.00;101396.72;6216279;23;20381;-78
2023/10/11 11:46:52;;;;;;;24.95;17.17;;;;;;;17.95;100.00;101394.16;6215921;23;20422;-80
2023/10/11 11:49:22;;;;;;;29.27;21.98;;;;;;;17.97;100.00;101389.63;6216426;23;20369;-80
2023/10/11 11:51:52;;;;;;;27.08;19.98;;;;;;;18.16;100.00;101389.72;6216067;23;20087;-80
2023/10/11 11:54:21;;;;;;;24.15;18.50;;;;;;;18.11;100.00;101344.84;6215914;23;20005;-82
2023/10/11 11:56:48;;;;;;;24.92;19.35;;;;;;;18.40;100.00;101360.63;6216040;23;20059;-84
2023/10/11 11:59:20;;;;;;;26.00;19.33;;;;;;;18.53;100.00;101348.13;6189174;23;20009;-81
2023/10/11 12:01:53;;;;;;;27.52;19.90;;;;;;;18.83;100.00;101341.16;6215448;23;20011;-81
2023/10/11 12:04:34;;;;;;;25.60;19.08;;;;;;;19.03;100.00;101348.03;6217059;23;20086;-79
2023/10/11 12:07:01;;;;;;;24.63;18.98;;;;;;;19.11;100.00;101355.19;6215836;23;20135;-78
2023/10/11 12:09:34;;;;;;;25.58;18.58;;;;;;;18.85;100.00;101328.75;6216681;23;20076;-83
2023/10/11 12:12:05;;;;;;;23.23;17.90;;;;;;;18.26;100.00;101274.72;6214707;23;20005;-82
2023/10/11 12:14:31;;;;;;;24.15;18.35;;;;;;;18.47;100.00;101326.91;6216599;23;20039;-80
2023/10/11 12:16:58;;;;;;;25.27;17.98;;;;;;;18.62;100.00;101347.31;6215921;23;20004;-78
2023/10/11 12:19:25;;;;;;;26.27;17.60;;;;;;;17.98;100.00;101261.44;6216204;23;21027;-85
2023/10/11 12:21:57;;;;;;;25.45;17.90;;;;;;;18.52;100.00;101343.03;6215943;23;20008;-77
2023/10/11 12:24:24;;;;;;;24.35;18.17;;;;;;;18.63;100.00;101354.19;6215415;23;20389;-77
2023/10/11 12:26:49;;;;;;;24.88;17.55;;;;;;;18.60;100.00;101346.63;6216010;23;20092;-84
2023/10/11 12:29:18;;;;;;;30.08;19.85;;;;;;;18.46;100.00;101326.06;6216088;23;20028;-84
2023/10/11 12:31:44;;;;;;;21.60;16.90;;;;;;;18.62;100.00;101329.00;6189394;23;20063;-84
2023/10/11 12:34:10;;;;;;;21.75;17.13;;;;;;;18.96;100.00;101340.88;6215351;23;20015;-78
2023/10/11 12:36:41;;;;;;;27.17;17.70;;;;;;;18.89;100.00;101328.34;6215452;23;20004;-81
2023/10/11 12:39:08;;;;;;;22.98;16.60;;;;;;;19.11;100.00;101344.72;6215148;23;20059;-86
2023/10/11 12:41:39;;;;;;;26.13;18.17;;;;;;;18.83;100.00;101283.59;6215265;23;20001;-83